createdAt,value
2019-03-21T00:03:16.178Z,99.90
2019-03-21T00:08:11.785Z,99.90
2019-03-21T00:13:06.128Z,99.90
2019-03-21T00:18:19.343Z,99.90
2019-03-21T00:23:13.245Z,99.90
2019-03-21T00:28:07.351Z,99.90
2019-03-21T00:33:01.461Z,99.90
2019-03-21T00:37:55.634Z,99.90
2019-03-21T00:42:49.669Z,99.90
2019-03-21T00:47:44.029Z,99.90
2019-03-21T00:52:38.219Z,99.90
2019-03-21T00:57:32.242Z,99.90
2019-03-21T01:02:28.539Z,99.90
2019-03-21T01:07:22.413Z,99.90
2019-03-21T01:12:16.766Z,99.90
2019-03-21T01:17:11.915Z,99.90
2019-03-21T01:22:06.970Z,99.90
2019-03-21T01:27:00.878Z,99.90
2019-03-21T01:31:54.816Z,99.90
2019-03-21T01:36:48.845Z,99.90
2019-03-21T01:41:42.846Z,99.90
2019-03-21T01:46:36.857Z,99.90
2019-03-21T01:51:30.810Z,99.90
2019-03-21T01:56:25.479Z,99.90
2019-03-21T02:01:19.406Z,99.90
2019-03-21T02:06:13.468Z,99.90
2019-03-21T02:11:07.502Z,99.90
2019-03-21T02:16:01.539Z,99.90
2019-03-21T02:20:55.534Z,99.90
2019-03-21T02:25:50.319Z,99.90
2019-03-21T02:30:44.295Z,99.90
2019-03-21T02:35:38.370Z,99.90
2019-03-21T02:40:32.506Z,99.90
2019-03-21T02:45:26.453Z,99.90
2019-03-21T02:50:27.887Z,99.90
2019-03-21T02:55:22.016Z,99.90
2019-03-21T03:00:19.384Z,99.90
2019-03-21T03:05:18.242Z,99.90
2019-03-21T03:10:15.087Z,99.90
2019-03-21T03:15:22.792Z,99.90
2019-03-21T03:20:10.875Z,99.90
2019-03-21T03:25:05.488Z,99.90
2019-03-21T03:29:59.566Z,99.90
2019-03-21T03:34:53.611Z,99.90
2019-03-21T03:39:47.587Z,99.90
2019-03-21T03:44:41.508Z,99.90
2019-03-21T03:49:35.468Z,99.90
2019-03-21T03:54:29.490Z,99.90
2019-03-21T03:59:23.425Z,99.90
2019-03-21T04:04:17.342Z,99.90
2019-03-21T04:09:11.559Z,99.90
2019-03-21T04:14:05.684Z,99.90
2019-03-21T04:18:59.664Z,99.90
2019-03-21T04:23:53.723Z,99.90
2019-03-21T04:28:47.732Z,99.90
2019-03-21T04:33:42.513Z,99.90
2019-03-21T04:38:36.659Z,99.90
2019-03-21T04:43:30.688Z,99.90
2019-03-21T04:48:24.717Z,99.90
2019-03-21T04:53:18.699Z,99.90
2019-03-21T04:58:12.615Z,99.90
2019-03-21T05:03:07.905Z,99.90
2019-03-21T05:08:21.005Z,99.90
2019-03-21T05:13:14.951Z,99.90
2019-03-21T05:18:19.630Z,99.90
2019-03-21T05:23:13.563Z,99.90
2019-03-21T05:28:07.508Z,99.90
2019-03-21T05:33:01.526Z,99.90
2019-03-21T05:37:55.470Z,99.90
2019-03-21T05:42:55.649Z,99.90
2019-03-21T05:47:49.599Z,99.90
2019-03-21T05:52:43.768Z,99.90
2019-03-21T05:57:38.000Z,99.90
2019-03-21T06:02:32.072Z,99.90
2019-03-21T06:08:02.547Z,99.90
2019-03-21T06:12:56.545Z,99.90
2019-03-21T06:18:27.566Z,99.90
2019-03-21T06:24:04.190Z,99.90
2019-03-21T06:28:58.344Z,99.90
2019-03-21T06:33:52.245Z,99.90
2019-03-21T06:38:46.366Z,99.90
2019-03-21T06:43:40.317Z,99.90
2019-03-21T06:48:34.411Z,99.90
2019-03-21T06:53:28.433Z,99.90
2019-03-21T06:58:22.372Z,99.90
2019-03-21T07:03:16.630Z,99.90
2019-03-21T07:08:11.137Z,99.90
2019-03-21T07:13:05.460Z,99.90
2019-03-21T07:17:59.588Z,99.90
2019-03-21T07:22:53.701Z,99.90
2019-03-21T07:27:47.849Z,99.90
2019-03-21T07:32:41.989Z,99.90
2019-03-21T07:37:36.420Z,99.90
2019-03-21T07:42:30.393Z,99.90
2019-03-21T07:47:24.545Z,99.90
2019-03-21T07:52:18.504Z,99.90
2019-03-21T07:57:12.528Z,99.90
2019-03-21T08:02:06.561Z,99.90
2019-03-21T08:07:00.682Z,99.90
2019-03-21T08:11:54.733Z,99.90
2019-03-21T08:16:48.766Z,99.90
2019-03-21T08:21:42.854Z,99.90
2019-03-21T08:26:36.910Z,99.90
2019-03-21T08:31:30.845Z,99.90
2019-03-21T08:36:24.883Z,99.90
2019-03-21T08:41:18.922Z,99.90
2019-03-21T08:46:13.023Z,99.90
2019-03-21T08:51:08.675Z,99.90
2019-03-21T08:56:03.050Z,99.90
2019-03-21T09:00:57.202Z,99.90
2019-03-21T09:05:51.394Z,97.70
2019-03-21T09:10:46.658Z,99.30
2019-03-21T09:15:40.747Z,98.60
2019-03-21T09:20:34.828Z,99.00
2019-03-21T09:25:30.315Z,99.90
2019-03-21T09:30:25.708Z,99.90
2019-03-21T09:35:19.947Z,94.70
2019-03-21T09:40:14.425Z,94.60
2019-03-21T09:45:09.213Z,95.90
2019-03-21T09:50:03.460Z,97.60
2019-03-21T09:54:57.614Z,97.50
2019-03-21T09:59:51.778Z,96.70
2019-03-21T10:04:45.912Z,94.50
2019-03-21T10:09:50.352Z,98.30
2019-03-21T10:14:44.470Z,94.30
2019-03-21T10:19:38.883Z,98.10
2019-03-21T10:24:33.500Z,97.40
2019-03-21T10:29:29.132Z,98.10
2019-03-21T10:34:24.195Z,99.90
2019-03-21T10:39:18.849Z,99.90
2019-03-21T10:44:13.351Z,99.90
2019-03-21T10:49:08.293Z,99.90
2019-03-21T10:54:02.611Z,99.90
2019-03-21T10:58:57.218Z,98.60
2019-03-21T11:03:51.801Z,99.90
2019-03-21T11:08:46.066Z,99.90
2019-03-21T11:13:41.197Z,99.90
2019-03-21T11:18:36.248Z,99.90
2019-03-21T11:23:30.865Z,99.90
2019-03-21T11:28:25.004Z,99.90
2019-03-21T11:33:19.070Z,99.90
2019-03-21T11:38:13.656Z,99.60
2019-03-21T11:43:10.017Z,99.90
2019-03-21T11:48:04.625Z,99.90
2019-03-21T11:52:59.210Z,99.90
2019-03-21T11:57:54.434Z,99.30
2019-03-21T12:02:48.541Z,99.20
2019-03-21T12:07:42.564Z,96.50
2019-03-21T12:12:36.917Z,95.30
2019-03-21T12:17:30.879Z,94.80
2019-03-21T12:22:29.819Z,93.70
2019-03-21T12:27:20.739Z,93.00
2019-03-21T12:32:15.132Z,90.90
2019-03-21T12:37:09.439Z,92.10
2019-03-21T12:42:04.029Z,90.80
2019-03-21T12:47:00.046Z,91.00
2019-03-21T12:51:54.461Z,90.80
2019-03-21T12:56:48.884Z,91.50
2019-03-21T13:01:43.024Z,90.80
2019-03-21T13:06:37.096Z,91.40
2019-03-21T13:11:31.382Z,91.30
2019-03-21T13:16:25.878Z,90.50
2019-03-21T13:21:20.342Z,91.60
2019-03-21T13:26:14.490Z,90.00
2019-03-21T13:31:08.601Z,89.10
2019-03-21T13:36:02.615Z,89.90
2019-03-21T13:40:56.791Z,85.10
2019-03-21T13:45:50.843Z,84.90
2019-03-21T13:50:44.801Z,81.80
2019-03-21T13:55:47.482Z,83.60
2019-03-21T14:00:41.901Z,83.20
2019-03-21T14:05:36.429Z,82.00
2019-03-21T14:10:32.364Z,85.10
2019-03-21T14:15:27.124Z,80.60
2019-03-21T14:20:21.491Z,79.80
2019-03-21T14:25:15.845Z,78.90
2019-03-21T14:30:11.992Z,75.90
2019-03-21T14:35:07.622Z,75.50
2019-03-21T14:40:01.664Z,74.30
2019-03-21T14:44:55.681Z,74.70
2019-03-21T14:49:50.142Z,77.00
2019-03-21T14:54:53.384Z,75.40
2019-03-21T14:59:57.180Z,76.40
2019-03-21T15:04:51.205Z,78.60
2019-03-21T15:09:45.276Z,78.50
2019-03-21T15:14:39.422Z,78.90
2019-03-21T15:19:33.545Z,79.50
2019-03-21T15:24:27.735Z,80.80
2019-03-21T15:29:21.868Z,80.60
2019-03-21T15:34:16.047Z,81.20
2019-03-21T15:39:10.183Z,82.20
2019-03-21T15:44:04.328Z,82.90
2019-03-21T15:48:58.371Z,86.30
2019-03-21T15:53:56.383Z,87.00
2019-03-21T15:58:48.159Z,90.10
2019-03-21T16:03:42.181Z,91.10
2019-03-21T16:08:36.066Z,91.60
2019-03-21T16:13:30.106Z,93.00
2019-03-21T16:18:24.118Z,93.50
2019-03-21T16:23:18.280Z,94.10
2019-03-21T16:28:12.287Z,94.30
2019-03-21T16:33:06.357Z,95.10
2019-03-21T16:38:00.560Z,94.90
2019-03-21T16:42:56.744Z,97.20
2019-03-21T16:47:50.791Z,98.30
2019-03-21T16:52:44.736Z,99.90
2019-03-21T16:57:38.747Z,99.90
2019-03-21T17:02:32.906Z,99.90
2019-03-21T17:07:26.957Z,99.90
2019-03-21T17:12:21.006Z,99.90
2019-03-21T17:17:15.138Z,99.90
2019-03-21T17:22:09.326Z,99.90
2019-03-21T17:27:04.874Z,99.90
2019-03-21T17:31:59.111Z,99.90
2019-03-21T17:36:53.615Z,99.90
2019-03-21T17:41:47.667Z,99.90
2019-03-21T17:46:42.115Z,99.90
2019-03-21T17:51:36.145Z,99.90
2019-03-21T17:56:30.280Z,99.90
2019-03-21T18:01:24.693Z,99.90
2019-03-21T18:06:19.019Z,99.90
2019-03-21T18:11:13.498Z,99.90
2019-03-21T18:16:09.702Z,99.90
2019-03-21T18:21:04.230Z,99.90
2019-03-21T18:25:59.749Z,99.90
2019-03-21T18:30:54.166Z,99.90
2019-03-21T18:35:49.505Z,99.90
2019-03-21T18:40:43.660Z,99.90
2019-03-21T18:45:37.564Z,99.90
2019-03-21T18:50:31.612Z,99.90
2019-03-21T18:55:25.693Z,99.90
2019-03-21T19:00:20.521Z,99.90
2019-03-21T19:05:14.711Z,99.90
2019-03-21T19:10:09.258Z,99.90
2019-03-21T19:15:03.721Z,99.90
2019-03-21T19:19:57.763Z,99.90
2019-03-21T19:24:51.861Z,99.90
2019-03-21T19:29:45.768Z,99.90
2019-03-21T19:34:39.962Z,99.90
2019-03-21T19:39:34.581Z,99.90
2019-03-21T19:44:28.869Z,99.90
2019-03-21T19:49:23.276Z,99.90
2019-03-21T19:54:17.763Z,99.90
2019-03-21T19:59:13.042Z,99.90
2019-03-21T20:04:07.305Z,99.90
2019-03-21T20:09:01.811Z,99.90
2019-03-21T20:13:56.182Z,99.90
2019-03-21T20:18:50.399Z,99.90
2019-03-21T20:23:44.832Z,99.90
2019-03-21T20:28:39.109Z,99.90
2019-03-21T20:33:33.406Z,99.90
2019-03-21T20:38:27.889Z,99.90
2019-03-21T20:43:25.063Z,99.90
2019-03-21T20:48:27.764Z,99.90
2019-03-21T20:53:21.958Z,99.90
2019-03-21T20:58:16.304Z,99.90
2019-03-21T21:03:10.698Z,99.90
2019-03-21T21:08:05.546Z,99.90
2019-03-21T21:13:00.718Z,99.90
2019-03-21T21:17:55.153Z,99.90
2019-03-21T21:22:49.851Z,99.90
2019-03-21T21:27:49.778Z,99.90
2019-03-21T21:32:40.889Z,99.90
2019-03-21T21:37:35.689Z,99.90
2019-03-21T21:42:30.849Z,99.90
2019-03-21T21:47:25.400Z,99.90
2019-03-21T21:52:20.603Z,99.90
2019-03-21T21:57:16.556Z,99.90
2019-03-21T22:02:10.865Z,99.90
2019-03-21T22:07:05.353Z,99.90
2019-03-21T22:11:59.695Z,99.90
2019-03-21T22:16:54.606Z,99.90
2019-03-21T22:21:49.171Z,99.90
2019-03-21T22:26:43.873Z,99.90
2019-03-21T22:31:38.582Z,99.90
2019-03-21T22:36:32.965Z,99.90
2019-03-21T22:41:29.131Z,99.90
2019-03-21T22:46:23.469Z,99.90
2019-03-21T22:51:17.967Z,99.90
2019-03-21T22:56:12.519Z,99.90
2019-03-21T23:01:07.166Z,99.90
2019-03-21T23:06:01.625Z,99.90
2019-03-21T23:10:56.080Z,99.90
2019-03-21T23:15:50.631Z,99.90
2019-03-21T23:20:44.952Z,99.90
2019-03-21T23:25:39.245Z,99.90
2019-03-21T23:30:33.854Z,99.90
2019-03-21T23:35:28.258Z,99.90
2019-03-21T23:40:22.623Z,99.90
2019-03-21T23:45:19.981Z,99.90
2019-03-21T23:50:14.406Z,99.90
2019-03-21T23:55:09.420Z,99.90
